createdAt,value
2019-02-28T00:02:48.366Z,50.30
2019-02-28T00:05:40.575Z,50.80
2019-02-28T00:08:32.725Z,50.40
2019-02-28T00:11:25.171Z,50.50
2019-02-28T00:14:17.207Z,50.50
2019-02-28T00:17:09.960Z,50.30
2019-02-28T00:20:02.490Z,50.40
2019-02-28T00:22:54.834Z,50.80
2019-02-28T00:25:46.862Z,50.80
2019-02-28T00:28:38.890Z,50.80
2019-02-28T00:31:31.236Z,50.60
2019-02-28T00:34:25.386Z,50.80
2019-02-28T00:37:24.686Z,50.90
2019-02-28T00:40:15.966Z,50.60
2019-02-28T00:43:08.583Z,50.70
2019-02-28T00:46:00.714Z,51.10
2019-02-28T00:48:54.134Z,50.90
2019-02-28T00:51:46.197Z,50.70
2019-02-28T00:54:43.222Z,50.80
2019-02-28T00:57:32.348Z,50.50
2019-02-28T01:00:26.232Z,50.80
2019-02-28T01:03:18.333Z,50.60
2019-02-28T01:06:11.052Z,50.40
2019-02-28T01:09:04.424Z,50.80
2019-02-28T01:11:57.620Z,50.60
2019-02-28T01:14:50.739Z,50.50
2019-02-28T01:17:43.172Z,50.60
2019-02-28T01:20:35.742Z,51.10
2019-02-28T01:23:29.339Z,50.70
2019-02-28T01:26:21.703Z,50.80
2019-02-28T01:29:14.201Z,51.00
2019-02-28T01:32:07.599Z,51.20
2019-02-28T01:35:00.243Z,51.10
2019-02-28T01:37:53.520Z,51.10
2019-02-28T01:40:46.302Z,50.80
2019-02-28T01:43:38.464Z,50.70
2019-02-28T01:46:31.429Z,50.70
2019-02-28T01:49:25.960Z,50.60
2019-02-28T01:52:17.917Z,50.60
2019-02-28T01:55:10.371Z,50.50
2019-02-28T01:58:02.831Z,50.60
2019-02-28T02:00:57.328Z,50.60
2019-02-28T02:03:48.874Z,50.40
2019-02-28T02:06:41.160Z,50.30
2019-02-28T02:09:33.504Z,50.20
2019-02-28T02:12:26.074Z,50.40
2019-02-28T02:15:18.770Z,50.50
2019-02-28T02:18:11.126Z,50.40
2019-02-28T02:21:03.662Z,50.70
2019-02-28T02:23:55.798Z,50.50
2019-02-28T02:26:48.340Z,50.20
2019-02-28T02:29:40.480Z,50.40
2019-02-28T02:32:37.462Z,49.90
2019-02-28T02:35:27.163Z,49.80
2019-02-28T02:38:19.379Z,49.50
2019-02-28T02:41:11.380Z,49.60
2019-02-28T02:44:03.642Z,49.80
2019-02-28T02:46:56.932Z,49.80
2019-02-28T02:49:55.966Z,49.70
2019-02-28T02:52:42.833Z,50.60
2019-02-28T02:55:36.641Z,50.00
2019-02-28T02:58:28.795Z,49.50
2019-02-28T03:01:23.091Z,50.10
2019-02-28T03:04:21.354Z,50.10
2019-02-28T03:07:08.579Z,49.90
2019-02-28T03:10:01.026Z,50.00
2019-02-28T03:12:53.565Z,49.70
2019-02-28T03:15:45.999Z,49.50
2019-02-28T03:18:38.449Z,49.20
2019-02-28T03:21:30.586Z,49.30
2019-02-28T03:24:22.928Z,49.30
2019-02-28T03:27:19.008Z,49.40
2019-02-28T03:30:10.358Z,49.40
2019-02-28T03:33:02.819Z,48.70
2019-02-28T03:35:55.096Z,49.20
2019-02-28T03:38:49.852Z,49.50
2019-02-28T03:41:41.187Z,49.00
2019-02-28T03:44:33.697Z,49.00
2019-02-28T03:47:31.268Z,49.30
2019-02-28T03:50:24.049Z,49.20
2019-02-28T03:53:22.103Z,48.90
2019-02-28T03:56:14.643Z,49.20
2019-02-28T03:59:08.215Z,49.10
2019-02-28T04:02:00.841Z,49.20
2019-02-28T04:04:53.538Z,48.90
2019-02-28T04:07:52.749Z,48.80
2019-02-28T04:11:01.002Z,48.60
2019-02-28T04:13:56.053Z,49.00
2019-02-28T04:16:52.725Z,49.00
2019-02-28T04:19:41.889Z,49.00
2019-02-28T04:22:34.434Z,49.00
2019-02-28T04:25:27.207Z,49.00
2019-02-28T04:28:19.596Z,48.70
2019-02-28T04:31:18.346Z,49.00
2019-02-28T04:34:12.947Z,48.90
2019-02-28T04:37:01.824Z,48.70
2019-02-28T04:39:56.138Z,48.70
2019-02-28T04:42:48.312Z,48.70
2019-02-28T04:45:41.872Z,48.70
2019-02-28T04:48:35.281Z,48.70
2019-02-28T04:51:27.903Z,48.80
2019-02-28T04:54:20.787Z,48.60
2019-02-28T04:57:13.102Z,47.60
2019-02-28T05:00:06.790Z,46.20
2019-02-28T05:02:59.317Z,47.60
2019-02-28T05:05:51.611Z,46.50
2019-02-28T05:08:44.343Z,47.20
2019-02-28T05:11:37.042Z,47.80
2019-02-28T05:14:33.206Z,46.90
2019-02-28T05:17:27.121Z,47.50
2019-02-28T05:20:21.949Z,47.80
2019-02-28T05:23:14.231Z,47.80
2019-02-28T05:26:07.126Z,48.10
2019-02-28T05:28:59.171Z,48.40
2019-02-28T05:31:52.765Z,48.60
2019-02-28T05:34:47.416Z,48.80
2019-02-28T05:37:46.668Z,49.40
2019-02-28T05:40:40.197Z,47.40
2019-02-28T05:43:32.106Z,47.20
2019-02-28T05:46:23.816Z,48.10
2019-02-28T05:49:18.518Z,49.00
2019-02-28T05:52:10.940Z,49.10
2019-02-28T05:55:03.056Z,49.30
2019-02-28T05:57:59.238Z,49.20
2019-02-28T06:00:53.301Z,49.20
2019-02-28T06:03:47.150Z,50.20
2019-02-28T06:06:40.909Z,50.00
2019-02-28T06:09:34.860Z,50.40
2019-02-28T06:12:27.143Z,50.10
2019-02-28T06:15:19.266Z,50.10
2019-02-28T06:18:11.848Z,50.80
2019-02-28T06:21:05.552Z,49.10
2019-02-28T06:23:57.986Z,50.10
2019-02-28T06:26:52.214Z,50.50
2019-02-28T06:29:46.640Z,50.30
2019-02-28T06:32:39.617Z,49.50
2019-02-28T06:35:32.338Z,48.40
2019-02-28T06:38:26.235Z,49.80
2019-02-28T06:41:19.125Z,49.90
2019-02-28T06:44:12.269Z,50.80
2019-02-28T06:47:04.773Z,49.50
2019-02-28T06:49:57.860Z,48.90
2019-02-28T06:52:51.141Z,49.80
2019-02-28T06:55:51.205Z,49.80
2019-02-28T06:58:45.822Z,50.50
2019-02-28T07:01:38.312Z,48.10
2019-02-28T07:04:31.619Z,48.10
2019-02-28T07:07:24.448Z,49.10
2019-02-28T07:10:16.710Z,50.10
2019-02-28T07:13:11.846Z,50.70
2019-02-28T07:16:04.415Z,48.00
2019-02-28T07:18:57.497Z,48.50
2019-02-28T07:21:51.343Z,49.50
2019-02-28T07:24:44.824Z,49.50
2019-02-28T07:27:42.989Z,48.40
2019-02-28T07:30:42.760Z,47.90
2019-02-28T07:33:37.635Z,49.00
2019-02-28T07:36:31.669Z,49.30
2019-02-28T07:39:25.882Z,49.80
2019-02-28T07:42:22.364Z,48.20
2019-02-28T07:45:17.939Z,47.20
2019-02-28T07:48:11.715Z,48.50
2019-02-28T07:51:04.575Z,49.10
2019-02-28T07:53:57.605Z,49.30
2019-02-28T07:56:52.135Z,48.00
2019-02-28T07:59:45.802Z,47.50
2019-02-28T08:02:39.125Z,48.40
2019-02-28T08:05:32.464Z,49.40
2019-02-28T08:08:26.334Z,49.60
2019-02-28T08:11:19.977Z,47.40
2019-02-28T08:14:14.796Z,46.30
2019-02-28T08:17:09.981Z,47.40
2019-02-28T08:20:04.149Z,48.40
2019-02-28T08:22:58.003Z,48.60
2019-02-28T08:25:51.554Z,48.50
2019-02-28T08:28:45.303Z,46.60
2019-02-28T08:31:43.306Z,47.10
2019-02-28T08:34:46.823Z,47.80
2019-02-28T08:37:55.591Z,44.60
2019-02-28T08:40:42.294Z,47.90
2019-02-28T08:43:35.250Z,46.30
2019-02-28T08:46:33.094Z,46.60
2019-02-28T08:49:25.702Z,47.20
2019-02-28T08:52:17.767Z,48.90
2019-02-28T08:55:11.024Z,47.90
2019-02-28T08:58:06.204Z,46.40
2019-02-28T09:00:57.518Z,47.20
2019-02-28T09:03:50.274Z,48.30
2019-02-28T09:06:42.488Z,47.10
2019-02-28T09:09:37.231Z,48.20
2019-02-28T09:12:29.858Z,46.50
2019-02-28T09:15:23.706Z,46.10
2019-02-28T09:18:16.432Z,46.80
2019-02-28T09:21:10.185Z,47.80
2019-02-28T09:24:04.572Z,48.60
2019-02-28T09:26:57.024Z,48.40
2019-02-28T09:29:54.362Z,46.10
2019-02-28T09:32:45.273Z,46.20
2019-02-28T09:35:38.778Z,47.30
2019-02-28T09:38:31.011Z,47.40
2019-02-28T09:41:23.121Z,49.30
2019-02-28T09:44:16.051Z,47.30
2019-02-28T09:47:11.072Z,46.20
2019-02-28T09:50:01.869Z,46.80
2019-02-28T09:52:59.485Z,48.40
2019-02-28T09:55:52.332Z,48.80
2019-02-28T09:58:45.150Z,48.80
2019-02-28T10:01:38.230Z,46.50
2019-02-28T10:04:31.208Z,45.90
2019-02-28T10:07:26.430Z,47.20
2019-02-28T10:10:21.083Z,48.90
2019-02-28T10:13:14.498Z,49.00
2019-02-28T10:16:09.301Z,48.00
2019-02-28T10:19:02.603Z,46.20
2019-02-28T10:21:56.122Z,47.00
2019-02-28T10:24:49.229Z,47.80
2019-02-28T10:27:43.218Z,48.80
2019-02-28T10:30:36.741Z,50.00
2019-02-28T10:33:29.403Z,48.10
2019-02-28T10:36:22.161Z,47.20
2019-02-28T10:39:17.342Z,47.70
2019-02-28T10:42:10.532Z,48.60
2019-02-28T10:45:06.575Z,48.90
2019-02-28T10:48:03.874Z,49.10
2019-02-28T10:51:13.211Z,49.10
2019-02-28T10:54:00.557Z,49.70
2019-02-28T10:56:52.791Z,48.60
2019-02-28T10:59:47.351Z,47.20
2019-02-28T11:02:40.704Z,47.50
2019-02-28T11:05:34.393Z,48.50
2019-02-28T11:08:27.454Z,49.50
2019-02-28T11:11:21.078Z,49.10
2019-02-28T11:14:15.108Z,49.50
2019-02-28T11:17:13.672Z,50.60
2019-02-28T11:20:02.784Z,48.80
2019-02-28T11:22:55.954Z,47.90
2019-02-28T11:25:48.936Z,48.20
2019-02-28T11:28:41.073Z,48.70
2019-02-28T11:31:34.429Z,49.00
2019-02-28T11:34:28.245Z,49.20
2019-02-28T11:37:21.102Z,49.40
2019-02-28T11:40:14.702Z,49.90
2019-02-28T11:43:07.478Z,49.00
2019-02-28T11:46:01.030Z,49.20
2019-02-28T11:48:55.162Z,49.30
2019-02-28T11:51:49.354Z,49.40
2019-02-28T11:54:45.196Z,49.60
2019-02-28T11:57:37.802Z,50.80
2019-02-28T12:00:35.558Z,50.10
2019-02-28T12:03:26.599Z,49.00
2019-02-28T12:06:19.330Z,49.20
2019-02-28T12:09:16.270Z,49.50
2019-02-28T12:12:10.563Z,49.70
2019-02-28T12:15:02.688Z,50.00
2019-02-28T12:18:03.504Z,51.00
2019-02-28T12:20:52.717Z,49.80
2019-02-28T12:23:45.393Z,49.00
2019-02-28T12:26:38.724Z,49.20
2019-02-28T12:29:32.882Z,49.30
2019-02-28T12:32:20.758Z,49.50
2019-02-28T12:35:13.985Z,50.60
2019-02-28T12:38:07.477Z,51.00
2019-02-28T12:41:07.489Z,50.20
2019-02-28T12:44:00.683Z,50.00
2019-02-28T12:46:57.176Z,50.10
2019-02-28T12:49:54.334Z,50.10
2019-02-28T12:52:49.921Z,50.40
2019-02-28T12:55:43.897Z,50.60
2019-02-28T12:58:41.653Z,50.80
2019-02-28T13:01:35.416Z,51.00
2019-02-28T13:04:28.778Z,51.70
2019-02-28T13:07:21.393Z,51.10
2019-02-28T13:10:16.145Z,51.20
2019-02-28T13:13:09.612Z,51.20
2019-02-28T13:16:02.903Z,51.80
2019-02-28T13:18:56.416Z,52.00
2019-02-28T13:21:49.570Z,52.10
2019-02-28T13:24:46.582Z,52.30
2019-02-28T13:27:37.654Z,53.20
2019-02-28T13:30:30.374Z,52.70
2019-02-28T13:33:23.378Z,52.60
2019-02-28T13:36:18.435Z,52.80
2019-02-28T13:39:12.462Z,52.80
2019-02-28T13:42:04.827Z,52.90
2019-02-28T13:44:59.512Z,53.00
2019-02-28T13:47:51.970Z,53.00
2019-02-28T13:50:44.296Z,53.20
2019-02-28T13:53:37.426Z,53.10
2019-02-28T13:56:40.163Z,53.20
2019-02-28T13:59:34.550Z,53.30
2019-02-28T14:02:30.083Z,53.30
2019-02-28T14:05:21.839Z,53.30
2019-02-28T14:08:14.385Z,53.20
2019-02-28T14:11:10.289Z,53.10
2019-02-28T14:14:06.333Z,53.30
2019-02-28T14:16:58.394Z,53.10
2019-02-28T14:19:52.757Z,53.10
2019-02-28T14:22:45.922Z,53.10
2019-02-28T14:25:39.806Z,53.10
2019-02-28T14:28:35.528Z,53.10
2019-02-28T14:31:29.445Z,53.10
2019-02-28T14:34:20.555Z,53.00
2019-02-28T14:37:16.846Z,53.00
2019-02-28T14:40:08.700Z,53.10
2019-02-28T14:43:01.345Z,53.10
2019-02-28T14:45:54.042Z,53.10
2019-02-28T14:48:46.689Z,53.20
2019-02-28T14:51:39.026Z,53.20
2019-02-28T14:54:31.358Z,53.10
2019-02-28T14:57:23.644Z,53.10
2019-02-28T15:00:17.617Z,53.00
2019-02-28T15:03:10.029Z,53.10
2019-02-28T15:06:03.248Z,53.10
2019-02-28T15:08:55.767Z,53.10
2019-02-28T15:11:48.301Z,53.00
2019-02-28T15:14:43.217Z,53.10
2019-02-28T15:17:38.722Z,53.00
2019-02-28T15:20:32.833Z,53.00
2019-02-28T15:23:23.846Z,53.20
2019-02-28T15:26:16.363Z,53.10
2019-02-28T15:29:08.678Z,53.20
2019-02-28T15:32:00.963Z,53.10
2019-02-28T15:34:53.277Z,53.10
2019-02-28T15:37:50.871Z,53.00
2019-02-28T15:40:43.154Z,53.00
2019-02-28T15:43:37.082Z,53.20
2019-02-28T15:46:29.445Z,53.20
2019-02-28T15:49:21.441Z,53.00
2019-02-28T15:52:13.537Z,53.00
2019-02-28T15:55:05.801Z,53.00
2019-02-28T15:57:58.822Z,53.00
2019-02-28T16:00:53.718Z,53.00
2019-02-28T16:03:48.377Z,53.00
2019-02-28T16:06:43.297Z,53.10
2019-02-28T16:09:36.135Z,53.10
2019-02-28T16:12:29.746Z,53.10
2019-02-28T16:15:22.377Z,53.10
2019-02-28T16:18:15.807Z,53.30
2019-02-28T16:21:08.318Z,53.20
2019-02-28T16:24:01.994Z,53.10
2019-02-28T16:26:56.721Z,53.10
2019-02-28T16:29:52.334Z,53.20
2019-02-28T16:32:45.546Z,53.30
2019-02-28T16:35:38.596Z,53.00
2019-02-28T16:38:32.489Z,53.00
2019-02-28T16:41:25.918Z,53.10
2019-02-28T16:44:18.949Z,53.10
2019-02-28T16:47:11.548Z,53.20
2019-02-28T16:50:04.010Z,53.00
2019-02-28T16:52:57.649Z,53.20
2019-02-28T16:55:50.148Z,53.10
2019-02-28T16:58:43.190Z,52.90
2019-02-28T17:01:35.927Z,52.60
2019-02-28T17:04:29.055Z,53.00
2019-02-28T17:07:22.852Z,53.10
2019-02-28T17:10:17.512Z,53.10
2019-02-28T17:13:38.757Z,53.10
2019-02-28T17:16:38.149Z,53.20
2019-02-28T17:19:31.705Z,53.30
2019-02-28T17:22:27.013Z,53.30
2019-02-28T17:25:18.479Z,53.20
2019-02-28T17:28:19.067Z,53.20
2019-02-28T17:31:26.065Z,53.30
2019-02-28T17:34:23.711Z,53.40
2019-02-28T17:37:14.846Z,53.20
2019-02-28T17:40:07.773Z,53.30
2019-02-28T17:43:01.552Z,53.10
2019-02-28T17:45:53.906Z,53.40
2019-02-28T17:49:07.524Z,52.70
2019-02-28T17:52:06.743Z,52.40
2019-02-28T17:55:23.560Z,52.80
2019-02-28T17:58:49.639Z,52.90
2019-02-28T18:02:01.570Z,52.30
2019-02-28T18:05:03.682Z,52.50
2019-02-28T18:08:18.792Z,52.30
2019-02-28T18:11:30.962Z,52.50
2019-02-28T18:14:40.374Z,52.60
2019-02-28T18:17:50.227Z,52.70
2019-02-28T18:20:48.604Z,52.30
2019-02-28T18:24:00.108Z,52.80
2019-02-28T18:27:11.731Z,52.70
2019-02-28T18:30:13.437Z,52.50
2019-02-28T18:33:06.747Z,52.10
2019-02-28T18:35:59.865Z,52.00
2019-02-28T18:38:52.298Z,51.50
2019-02-28T18:41:44.690Z,51.60
2019-02-28T18:44:37.509Z,51.60
2019-02-28T18:47:31.007Z,51.20
2019-02-28T18:50:23.400Z,51.30
2019-02-28T18:53:16.058Z,51.10
2019-02-28T18:56:08.796Z,51.00
2019-02-28T18:59:01.250Z,51.00
2019-02-28T19:01:53.322Z,51.00
2019-02-28T19:04:45.934Z,50.70
2019-02-28T19:07:38.427Z,50.50
2019-02-28T19:10:31.001Z,50.80
2019-02-28T19:13:23.036Z,50.60
2019-02-28T19:16:15.529Z,50.40
2019-02-28T19:19:08.635Z,50.10
2019-02-28T19:22:00.927Z,49.80
2019-02-28T19:24:53.611Z,50.30
2019-02-28T19:27:47.205Z,49.90
2019-02-28T19:30:39.590Z,49.90
2019-02-28T19:33:31.966Z,49.50
2019-02-28T19:36:24.364Z,48.90
2019-02-28T19:39:17.356Z,48.80
2019-02-28T19:42:09.536Z,48.90
2019-02-28T19:45:01.831Z,49.20
2019-02-28T19:47:55.342Z,48.60
2019-02-28T19:50:47.742Z,48.70
2019-02-28T19:53:39.710Z,49.00
2019-02-28T19:56:32.153Z,48.60
2019-02-28T19:59:24.486Z,49.30
2019-02-28T20:02:17.153Z,49.00
2019-02-28T20:05:09.237Z,49.20
2019-02-28T20:08:01.462Z,48.90
2019-02-28T20:10:54.011Z,48.50
2019-02-28T20:13:47.387Z,48.00
2019-02-28T20:16:39.328Z,48.30
2019-02-28T20:19:31.597Z,48.80
2019-02-28T20:22:23.708Z,48.40
2019-02-28T20:25:16.395Z,48.30
2019-02-28T20:28:08.397Z,48.50
2019-02-28T20:31:01.661Z,48.70
2019-02-28T20:33:54.055Z,49.20
2019-02-28T20:36:46.397Z,49.40
2019-02-28T20:39:38.355Z,49.00
2019-02-28T20:42:30.504Z,48.30
2019-02-28T20:45:22.495Z,48.50
2019-02-28T20:48:14.890Z,48.70
2019-02-28T20:51:07.161Z,48.30
2019-02-28T20:53:59.361Z,48.30
2019-02-28T20:56:51.529Z,48.30
2019-02-28T20:59:43.584Z,48.40
2019-02-28T21:02:35.930Z,48.40
2019-02-28T21:05:28.138Z,48.90
2019-02-28T21:08:20.287Z,48.20
2019-02-28T21:11:13.219Z,48.20
2019-02-28T21:14:05.586Z,47.60
2019-02-28T21:16:57.757Z,47.80
2019-02-28T21:19:49.990Z,47.20
2019-02-28T21:22:42.936Z,48.10
2019-02-28T21:25:35.363Z,48.00
2019-02-28T21:28:27.897Z,47.60
2019-02-28T21:31:20.230Z,47.40
2019-02-28T21:34:12.757Z,47.50
2019-02-28T21:37:05.088Z,47.10
2019-02-28T21:39:57.277Z,46.80
2019-02-28T21:42:49.623Z,47.40
2019-02-28T21:45:42.040Z,47.20
2019-02-28T21:48:35.333Z,47.50
2019-02-28T21:51:27.821Z,46.60
2019-02-28T21:54:20.272Z,46.50
2019-02-28T21:57:12.517Z,46.80
2019-02-28T22:00:06.005Z,46.80
2019-02-28T22:02:59.329Z,46.50
2019-02-28T22:05:51.601Z,46.40
2019-02-28T22:08:43.641Z,46.90
2019-02-28T22:11:36.040Z,46.60
2019-02-28T22:14:28.388Z,46.10
2019-02-28T22:17:20.447Z,46.20
2019-02-28T22:20:13.250Z,46.40
2019-02-28T22:23:05.564Z,46.70
2019-02-28T22:25:57.665Z,46.80
2019-02-28T22:28:50.084Z,46.50
2019-02-28T22:32:01.143Z,46.40
2019-02-28T22:34:59.379Z,46.80
2019-02-28T22:37:52.884Z,46.50
2019-02-28T22:40:46.193Z,46.60
2019-02-28T22:43:38.607Z,46.30
2019-02-28T22:46:30.615Z,46.70
2019-02-28T22:49:22.506Z,46.40
2019-02-28T22:52:14.944Z,46.40
2019-02-28T22:55:07.365Z,45.90
2019-02-28T22:57:59.586Z,46.60
2019-02-28T23:01:21.592Z,46.50
2019-02-28T23:04:14.676Z,46.50
2019-02-28T23:07:07.010Z,46.10
2019-02-28T23:10:01.146Z,46.40
2019-02-28T23:12:53.547Z,46.70
2019-02-28T23:15:45.861Z,46.70
2019-02-28T23:18:38.010Z,46.80
2019-02-28T23:21:30.343Z,46.60
2019-02-28T23:24:22.400Z,46.70
2019-02-28T23:27:21.563Z,46.60
2019-02-28T23:30:36.043Z,47.10
2019-02-28T23:33:28.459Z,46.90
2019-02-28T23:36:20.803Z,47.10
2019-02-28T23:39:13.081Z,46.90
2019-02-28T23:42:05.496Z,46.30
2019-02-28T23:44:57.512Z,46.60
2019-02-28T23:47:50.486Z,46.80
2019-02-28T23:50:42.759Z,46.60
2019-02-28T23:53:35.162Z,47.20
2019-02-28T23:56:27.441Z,47.10
2019-02-28T23:59:20.151Z,46.70
